CW2798 Aduanas ES current weather conditions

sailwx.info

Wind from 356 at 5 knots gusting 12

Air temperature 27.2° C
Dewpoint 23.5° C

Last reported at 2015-Jul-06 08:32 UTC.
Time now 2015-Jul-06 09:11 UTC

Location: N 38°48' E 000°11'.
View on Google Maps.

See reports from other nearby stations

  
Tides and Currents Weather Stations Pressure Air Temp Water Temp Dewpoint Dewpoint Depression Visibility Wind Speed Wind Dir Waves Ship Positions
date/time (UTC)wind fromknots sea level pressurealtimeterstation pressurevisibilityair tempwater tempwave heightnotes
2015-Jul-06 08:32 356 5 gusting 12 27.2
2015-Jul-06 08:02 356 2 gusting 7 27.8
2015-Jul-06 07:47 333 5 gusting 8 26.7
2015-Jul-06 07:32 333 3 gusting 9 26.7
2015-Jul-06 07:17 354 5 gusting 12 26.7
2015-Jul-06 06:47 334 1 gusting 6 26.1
2015-Jul-06 06:32 048 25.6
2015-Jul-06 06:17 24.4
2015-Jul-06 05:47 23.3
2015-Jul-06 05:17 22.8
2015-Jul-06 05:02 22.2
2015-Jul-06 04:32 22.2
2015-Jul-06 04:17 22.8
2015-Jul-06 04:02 23.3
2015-Jul-06 03:32 23.3
2015-Jul-06 03:17 23.9
2015-Jul-06 03:02 24.4
2015-Jul-06 02:32 24.4
2015-Jul-06 02:02 24.4
2015-Jul-06 01:32 25.0
2015-Jul-06 01:17 25.0
2015-Jul-06 00:47 25.0
2015-Jul-06 00:32 25.0
2015-Jul-06 00:17 25.6
2015-Jul-06 00:02 25.6
2015-Jul-05 23:32 27.2
2015-Jul-05 23:17 27.2
2015-Jul-05 22:47 26.7
2015-Jul-05 22:17 26.7
2015-Jul-05 22:02 26.7
2015-Jul-05 21:47 250 0 gusting 2 27.2
2015-Jul-05 21:32 27.2
2015-Jul-05 21:02 248 3 gusting 6 27.2
2015-Jul-05 20:47 256 1 gusting 6 27.2
2015-Jul-05 20:32 254 1 gusting 5 27.2
2015-Jul-05 20:17 27.2
2015-Jul-05 20:02 226 0 gusting 5 27.2
2015-Jul-05 19:47 170 2 gusting 5 27.2
2015-Jul-05 19:32 182 1 gusting 6 27.2
2015-Jul-05 19:17 173 2 gusting 5 27.8
2015-Jul-05 18:17 150 3 gusting 7 28.3
2015-Jul-05 18:02 152 2 gusting 6 27.8
2015-Jul-05 17:47 135 4 gusting 9 27.8
2015-Jul-05 17:32 151 1 gusting 5 28.3
2015-Jul-05 16:47 28.3
2015-Jul-05 16:32 134 0 gusting 4 28.3
2015-Jul-05 16:02 123 1 gusting 5 28.3
2015-Jul-05 15:47 126 3 gusting 5 28.3
2015-Jul-05 15:32 136 1 gusting 6 28.9
2015-Jul-05 15:17 087 2 gusting 3 28.9
2015-Jul-05 14:47 093 4 gusting 6 28.3
2015-Jul-05 14:32 097 3 gusting 6 28.3
2015-Jul-05 13:47 100 4 gusting 6 27.8
2015-Jul-05 13:17 090 3 gusting 6 28.3
2015-Jul-05 13:02 086 3 gusting 6 28.3
2015-Jul-05 12:47 091 3 gusting 6 28.3
2015-Jul-05 12:32 084 3 gusting 6 28.9
2015-Jul-05 11:47 086 3 gusting 8 29.4
2015-Jul-05 11:17 019 6 gusting 8 28.9
2015-Jul-05 10:47 038 4 gusting 7 29.4
2015-Jul-05 10:32 009 6 gusting 9 28.9
2015-Jul-05 10:17 014 6 gusting 11 28.3
2015-Jul-05 09:17 005 4 gusting 7 28.3
2015-Jul-05 09:02 002 3 gusting 10 28.3
2015-Jul-05 08:47 353 3 gusting 6 27.8
2015-Jul-05 08:32 003 5 gusting 10 27.2
2015-Jul-05 08:17 011 3 gusting 10 27.8
2015-Jul-05 08:02 003 1 gusting 8 27.8
2015-Jul-05 07:32 341 2 gusting 6 26.7
2015-Jul-05 07:17 335 2 gusting 7 26.7
2015-Jul-05 07:02 338 1 gusting 7 26.1
2015-Jul-05 06:47 329 2 gusting 7 25.6
2015-Jul-05 06:02 276 0 gusting 5 23.9
2015-Jul-05 05:47 023 23.9
2015-Jul-05 05:02 270 0 gusting 3 23.9
2015-Jul-05 04:47 339 0 gusting 4 23.9
2015-Jul-05 04:17 322 0 gusting 4 23.9
2015-Jul-05 04:02 246 0 gusting 5 23.9
2015-Jul-05 03:47 321 3 gusting 7 24.4
2015-Jul-05 03:32 349 6 gusting 10 24.4
2015-Jul-05 03:17 343 3 gusting 9 24.4
2015-Jul-05 03:02 294 0 gusting 3 24.4
2015-Jul-05 02:32 017 23.9
2015-Jul-05 02:17 23.3
2015-Jul-05 02:02 23.9
2015-Jul-05 01:47 23.3
2015-Jul-05 01:32 23.9
2015-Jul-05 01:17 23.9
2015-Jul-05 01:02 23.9
2015-Jul-05 00:47 24.4
2015-Jul-05 00:32 24.4
2015-Jul-05 00:17 24.4
2015-Jul-05 00:02 25.0
2015-Jul-04 23:47 24.4
2015-Jul-04 23:32 25.0
2015-Jul-04 23:17 25.0
2015-Jul-04 23:02 25.0
2015-Jul-04 22:47 25.0
2015-Jul-04 22:32 25.0
2015-Jul-04 22:02 25.6
2015-Jul-04 21:47 25.6
2015-Jul-04 21:32 25.6
2015-Jul-04 21:17 26.1
2015-Jul-04 20:47 26.1
2015-Jul-04 20:02 26.7
2015-Jul-04 19:47 046 26.7
2015-Jul-04 19:02 026 2 gusting 5 26.7
2015-Jul-04 18:47 008 1 gusting 6 27.2
2015-Jul-04 18:32 033 1 gusting 6 27.2
2015-Jul-04 18:17 019 5 gusting 6 27.2
2015-Jul-04 18:02 008 4 gusting 6 27.8
2015-Jul-04 17:47 017 4 gusting 7 27.8
2015-Jul-04 17:32 003 4 gusting 6 27.8
2015-Jul-04 17:17 007 5 gusting 7 27.8
2015-Jul-04 17:02 016 5 gusting 9 27.8
2015-Jul-04 16:32 025 5 gusting 11 27.8
2015-Jul-04 16:02 027 4 gusting 9 28.3
2015-Jul-04 15:47 006 6 gusting 11 27.8
2015-Jul-04 15:32 004 6 gusting 11 28.3
2015-Jul-04 15:17 031 5 gusting 11 28.3
2015-Jul-04 15:02 001 6 gusting 9 28.9
2015-Jul-04 14:47 008 8 gusting 12 27.8
2015-Jul-04 14:32 012 6 gusting 11 28.3
2015-Jul-04 13:47 001 9 gusting 14 27.2
2015-Jul-04 12:47 007 7 gusting 13 27.2
2015-Jul-04 12:02 003 8 gusting 19 27.2
2015-Jul-04 11:47 002 9 gusting 15 27.2
2015-Jul-04 11:32 009 6 gusting 12 27.8
2015-Jul-04 11:02 014 5 gusting 8 27.8
2015-Jul-04 10:47 350 6 gusting 13 27.8
2015-Jul-04 10:32 345 2 gusting 7 28.3
2015-Jul-04 10:17 328 4 gusting 10 27.8
2015-Jul-04 09:47 008 2 gusting 9 27.8
2015-Jul-04 09:32 355 4 gusting 10 27.2
2015-Jul-04 09:02 314 2 gusting 6 27.2